createdAt,value
2023-04-17T00:00:20.124Z,22.70
2023-04-17T00:02:48.224Z,20.67
2023-04-17T00:05:17.138Z,23.52
2023-04-17T00:07:46.566Z,20.67
2023-04-17T00:10:14.623Z,21.83
2023-04-17T00:12:42.654Z,22.27
2023-04-17T00:15:12.748Z,23.17
2023-04-17T00:17:40.834Z,22.20
2023-04-17T00:20:10.849Z,23.30
2023-04-17T00:22:39.054Z,23.48
2023-04-17T00:25:10.387Z,25.27
2023-04-17T00:27:38.447Z,21.73
2023-04-17T00:30:07.877Z,20.98
2023-04-17T00:32:37.325Z,23.17
2023-04-17T00:35:05.899Z,25.08
2023-04-17T00:37:35.662Z,19.83
2023-04-17T00:40:03.905Z,21.30
2023-04-17T00:42:31.969Z,22.75
2023-04-17T00:45:00.084Z,24.55
2023-04-17T00:47:28.524Z,23.70
2023-04-17T00:49:58.133Z,24.95
2023-04-17T00:52:30.078Z,21.48
2023-04-17T00:57:27.743Z,23.02
2023-04-17T00:59:57.986Z,22.23
2023-04-17T01:02:26.919Z,20.60
2023-04-17T01:04:55.319Z,20.52
2023-04-17T01:07:25.134Z,22.38
2023-04-17T01:09:53.247Z,21.77
2023-04-17T01:12:22.547Z,22.80
2023-04-17T01:14:51.935Z,21.50
2023-04-17T01:17:20.482Z,23.42
2023-04-17T01:19:49.297Z,22.10
2023-04-17T01:22:17.497Z,22.30
2023-04-17T01:24:47.101Z,20.58
2023-04-17T01:27:15.484Z,26.60
2023-04-17T01:29:44.250Z,21.27
2023-04-17T01:32:12.330Z,24.67
2023-04-17T01:34:40.465Z,22.35
2023-04-17T01:37:08.513Z,21.88
2023-04-17T01:39:37.523Z,24.52
2023-04-17T01:42:07.332Z,19.40
2023-04-17T01:44:37.436Z,20.45
2023-04-17T01:47:05.743Z,22.27
2023-04-17T01:49:34.055Z,23.13
2023-04-17T01:52:02.118Z,21.20
2023-04-17T01:54:30.208Z,22.90
2023-04-17T01:56:58.236Z,21.10
2023-04-17T01:59:27.827Z,24.13
2023-04-17T02:01:57.212Z,21.05
2023-04-17T02:04:25.681Z,22.35
2023-04-17T02:06:53.794Z,23.92
2023-04-17T02:09:21.934Z,20.30
2023-04-17T02:11:49.985Z,23.00
2023-04-17T02:14:19.406Z,23.25
2023-04-17T02:16:48.859Z,21.25
2023-04-17T02:19:16.901Z,20.35
2023-04-17T02:21:44.916Z,20.90
2023-04-17T02:24:12.997Z,23.25
2023-04-17T02:26:41.557Z,20.48
2023-04-17T02:29:09.762Z,21.67
2023-04-17T02:31:38.022Z,22.23
2023-04-17T02:34:07.422Z,23.13
2023-04-17T02:36:35.484Z,21.00
2023-04-17T02:39:04.137Z,19.98
2023-04-17T02:41:32.181Z,20.35
2023-04-17T02:44:02.097Z,20.23
2023-04-17T02:46:30.331Z,21.27
2023-04-17T02:48:58.388Z,20.92
2023-04-17T02:51:27.886Z,24.05
2023-04-17T02:53:55.902Z,20.00
2023-04-17T02:56:24.000Z,23.80
2023-04-17T02:58:52.043Z,22.17
2023-04-17T03:01:20.161Z,22.67
2023-04-17T03:03:48.576Z,21.33
2023-04-17T03:06:16.880Z,22.52
2023-04-17T03:08:46.295Z,20.25
2023-04-17T03:11:14.494Z,23.00
2023-04-17T03:13:42.745Z,23.48
2023-04-17T03:16:10.794Z,23.33
2023-04-17T03:18:41.503Z,21.10
2023-04-17T03:21:09.667Z,19.75
2023-04-17T03:23:37.707Z,21.52
2023-04-17T03:26:07.202Z,21.02
2023-04-17T03:28:35.413Z,23.90
2023-04-17T03:31:03.452Z,19.98
2023-04-17T03:33:31.488Z,23.63
2023-04-17T03:35:59.513Z,21.83
2023-04-17T03:38:27.528Z,22.83
2023-04-17T03:40:55.623Z,20.27
2023-04-17T03:43:25.037Z,21.35
2023-04-17T03:45:53.074Z,22.40
2023-04-17T03:48:21.125Z,22.65
2023-04-17T03:50:50.296Z,22.98
2023-04-17T03:53:18.356Z,22.20
2023-04-17T03:55:46.565Z,25.15
2023-04-17T03:58:14.618Z,20.92
2023-04-17T04:00:45.632Z,21.80
2023-04-17T04:03:13.934Z,28.33
2023-04-17T04:05:42.144Z,21.05
2023-04-17T04:08:10.183Z,23.15
2023-04-17T04:10:38.386Z,21.73
2023-04-17T04:13:06.425Z,20.58
2023-04-17T04:15:34.457Z,22.48
2023-04-17T04:18:04.023Z,20.33
2023-04-17T04:20:32.208Z,20.17
2023-04-17T04:23:00.278Z,22.77
2023-04-17T04:25:28.813Z,20.55
2023-04-17T04:27:56.842Z,21.65
2023-04-17T04:30:25.416Z,19.83
2023-04-17T04:32:53.508Z,21.55
2023-04-17T04:35:25.844Z,19.73
2023-04-17T04:37:54.700Z,20.08
2023-04-17T04:40:24.639Z,22.00
2023-04-17T04:42:52.692Z,20.02
2023-04-17T04:45:21.068Z,18.95
2023-04-17T04:47:49.154Z,17.73
2023-04-17T04:50:17.688Z,17.98
2023-04-17T04:52:47.100Z,19.45
2023-04-17T04:55:15.665Z,22.23
2023-04-17T04:57:43.736Z,18.52
2023-04-17T05:00:14.306Z,19.08
2023-04-17T05:02:42.402Z,23.35
2023-04-17T05:05:10.957Z,20.08
2023-04-17T05:07:38.994Z,19.98
2023-04-17T05:10:09.686Z,19.08
2023-04-17T05:12:37.745Z,23.38
2023-04-17T05:15:06.835Z,24.38
2023-04-17T05:17:35.246Z,33.00
2023-04-17T05:20:06.830Z,31.30
2023-04-17T05:22:34.899Z,30.52
2023-04-17T05:25:02.983Z,29.95
2023-04-17T05:27:32.379Z,29.20
2023-04-17T05:30:00.420Z,20.08
2023-04-17T05:32:31.021Z,22.25
2023-04-17T05:34:59.134Z,22.05
2023-04-17T05:37:27.208Z,21.42
2023-04-17T05:39:55.259Z,24.20
2023-04-17T05:42:23.266Z,22.90
2023-04-17T05:44:52.690Z,22.38
2023-04-17T05:47:20.764Z,20.35
2023-04-17T05:49:51.196Z,32.28
2023-04-17T05:52:19.316Z,25.02
2023-04-17T05:54:47.347Z,18.67
2023-04-17T05:57:15.438Z,21.63
2023-04-17T05:59:44.603Z,19.50
2023-04-17T06:02:14.076Z,23.70
2023-04-17T06:04:42.615Z,22.85
2023-04-17T06:07:11.810Z,20.75
2023-04-17T06:09:41.081Z,20.67
2023-04-17T06:12:15.697Z,26.52
2023-04-17T06:14:44.428Z,21.88
2023-04-17T06:17:13.874Z,20.08
2023-04-17T06:19:41.962Z,22.42
2023-04-17T06:22:10.020Z,21.00
2023-04-17T06:24:38.063Z,24.80
2023-04-17T06:27:06.128Z,20.38
2023-04-17T06:29:34.192Z,22.58
2023-04-17T06:32:02.244Z,20.35
2023-04-17T06:34:32.038Z,22.02
2023-04-17T06:37:00.752Z,21.02
2023-04-17T06:39:28.780Z,20.10
2023-04-17T06:41:56.877Z,19.17
2023-04-17T06:44:24.900Z,18.42
2023-04-17T06:46:53.569Z,20.00
2023-04-17T06:49:21.857Z,19.15
2023-04-17T06:51:51.508Z,19.08
2023-04-17T06:54:19.540Z,18.45
2023-04-17T06:56:47.598Z,19.95
2023-04-17T06:59:15.668Z,21.05
2023-04-17T07:01:43.719Z,20.48
2023-04-17T07:04:11.868Z,20.05
2023-04-17T07:06:39.970Z,21.65
2023-04-17T07:09:09.362Z,20.98
2023-04-17T07:11:37.411Z,20.20
2023-04-17T07:14:05.849Z,20.25
2023-04-17T07:16:33.950Z,22.88
2023-04-17T07:19:02.209Z,20.48
2023-04-17T07:21:30.512Z,21.25
2023-04-17T07:23:58.554Z,21.40
2023-04-17T07:26:28.078Z,21.70
2023-04-17T07:28:56.128Z,21.88
2023-04-17T07:31:24.283Z,18.27
2023-04-17T07:33:52.330Z,21.02
2023-04-17T07:36:20.404Z,18.33
2023-04-17T07:38:48.435Z,17.77
2023-04-17T07:41:16.472Z,17.58
2023-04-17T07:43:45.904Z,19.13
2023-04-17T07:46:14.006Z,17.05
2023-04-17T07:48:42.053Z,16.98
2023-04-17T07:51:10.373Z,15.70
2023-04-17T07:53:38.684Z,18.25
2023-04-17T07:56:07.796Z,17.35
2023-04-17T07:58:36.669Z,14.63
2023-04-17T08:01:06.588Z,15.15
2023-04-17T08:03:35.129Z,15.65
2023-04-17T08:06:03.360Z,15.95
2023-04-17T08:08:31.413Z,15.93
2023-04-17T08:10:59.468Z,13.95
2023-04-17T08:13:27.836Z,15.73
2023-04-17T08:15:55.870Z,15.52
2023-04-17T08:18:25.258Z,14.65
2023-04-17T08:20:53.851Z,14.05
2023-04-17T08:23:21.946Z,14.23
2023-04-17T08:25:50.242Z,14.48
2023-04-17T08:28:18.339Z,14.65
2023-04-17T08:30:46.421Z,11.95
2023-04-17T08:33:16.880Z,14.63
2023-04-17T08:35:46.613Z,12.10
2023-04-17T08:38:15.136Z,13.65
2023-04-17T08:40:46.609Z,16.65
2023-04-17T08:43:18.711Z,12.68
2023-04-17T08:45:53.626Z,12.93
2023-04-17T08:48:22.158Z,11.45
2023-04-17T08:50:53.327Z,10.02
2023-04-17T08:53:22.034Z,9.80
2023-04-17T08:55:50.314Z,9.27
2023-04-17T08:58:18.370Z,10.40
2023-04-17T09:00:46.839Z,8.98
2023-04-17T09:03:15.794Z,8.88
2023-04-17T09:05:46.142Z,10.35
2023-04-17T09:08:17.756Z,8.95
2023-04-17T09:10:47.199Z,10.00
2023-04-17T09:13:18.249Z,8.88
2023-04-17T09:15:47.669Z,10.03
2023-04-17T09:18:25.945Z,8.65
2023-04-17T09:20:54.674Z,8.07
2023-04-17T09:23:24.311Z,7.75
2023-04-17T09:26:08.011Z,10.75
2023-04-17T09:28:36.864Z,7.63
2023-04-17T09:31:06.370Z,11.88
2023-04-17T09:33:34.622Z,11.00
2023-04-17T09:36:22.226Z,11.25
2023-04-17T09:38:52.212Z,9.98
2023-04-17T09:41:24.681Z,10.00
2023-04-17T09:43:54.940Z,10.27
2023-04-17T09:46:33.184Z,6.88
2023-04-17T09:49:05.562Z,8.70
2023-04-17T09:51:35.229Z,6.15
2023-04-17T09:54:06.913Z,6.40
2023-04-17T09:56:35.380Z,6.07
2023-04-17T09:59:05.257Z,8.00
2023-04-17T10:01:34.885Z,6.00
2023-04-17T10:04:04.369Z,5.38
2023-04-17T10:06:33.478Z,7.72
2023-04-17T10:09:02.439Z,7.63
2023-04-17T10:11:35.965Z,5.75
2023-04-17T10:14:11.690Z,7.95
2023-04-17T10:16:42.599Z,6.15
2023-04-17T10:19:31.166Z,5.95
2023-04-17T10:22:31.069Z,7.32
2023-04-17T10:25:23.854Z,4.10
2023-04-17T10:27:58.331Z,6.13
2023-04-17T10:30:46.913Z,5.10
2023-04-17T10:33:24.616Z,9.27
2023-04-17T10:35:53.510Z,6.25
2023-04-17T10:38:37.038Z,5.07
2023-04-17T10:41:09.279Z,6.47
2023-04-17T10:43:41.747Z,4.68
2023-04-17T10:46:12.253Z,6.63
2023-04-17T10:48:47.253Z,6.53
2023-04-17T10:51:40.630Z,5.25
2023-04-17T10:54:10.462Z,5.63
2023-04-17T10:56:40.233Z,5.53
2023-04-17T10:59:11.804Z,5.53
2023-04-17T11:04:10.578Z,7.53
2023-04-17T11:06:40.508Z,6.30
2023-04-17T11:09:10.477Z,6.43
2023-04-17T11:11:44.120Z,4.97
2023-04-17T11:14:16.466Z,6.10
2023-04-17T11:16:46.266Z,6.07
2023-04-17T11:19:19.388Z,6.60
2023-04-17T11:21:49.733Z,8.15
2023-04-17T11:24:24.222Z,6.80
2023-04-17T11:26:52.359Z,5.72
2023-04-17T11:29:22.979Z,5.22
2023-04-17T11:31:52.554Z,7.40
2023-04-17T11:34:21.008Z,7.20
2023-04-17T11:36:52.713Z,6.63
2023-04-17T11:39:22.726Z,6.85
2023-04-17T11:41:52.736Z,6.35
2023-04-17T11:44:22.714Z,6.68
2023-04-17T11:46:52.107Z,6.60
2023-04-17T11:49:26.456Z,6.28
2023-04-17T11:51:54.613Z,4.95
2023-04-17T11:54:26.574Z,5.90
2023-04-17T11:57:04.710Z,5.25
2023-04-17T11:59:35.326Z,6.03
2023-04-17T12:02:04.109Z,4.32
2023-04-17T12:04:34.386Z,4.88
2023-04-17T12:07:03.287Z,5.18
2023-04-17T12:09:32.510Z,5.28
2023-04-17T12:12:01.631Z,5.50
2023-04-17T12:14:29.749Z,4.75
2023-04-17T12:16:59.600Z,5.00
2023-04-17T12:19:29.278Z,7.20
2023-04-17T12:21:59.077Z,4.10
2023-04-17T12:24:27.246Z,5.55
2023-04-17T12:26:56.120Z,4.78
2023-04-17T12:29:36.897Z,6.85
2023-04-17T12:32:12.469Z,4.63
2023-04-17T12:34:40.730Z,4.43
2023-04-17T12:37:08.996Z,5.03
2023-04-17T12:39:37.116Z,8.27
2023-04-17T12:42:05.613Z,5.90
2023-04-17T12:44:33.716Z,4.53
2023-04-17T12:47:01.805Z,5.88
2023-04-17T12:49:31.462Z,6.15
2023-04-17T12:52:01.066Z,6.20
2023-04-17T12:54:31.205Z,5.22
2023-04-17T12:56:59.276Z,4.45
2023-04-17T12:59:27.298Z,6.55
2023-04-17T13:01:55.440Z,4.60
2023-04-17T13:04:23.644Z,4.43
2023-04-17T13:06:53.295Z,5.18
2023-04-17T13:09:21.324Z,6.70
2023-04-17T13:11:49.383Z,5.00
2023-04-17T13:14:17.441Z,5.75
2023-04-17T13:16:45.682Z,3.97
2023-04-17T13:19:14.123Z,4.20
2023-04-17T13:21:42.343Z,5.40
2023-04-17T13:24:14.656Z,10.27
2023-04-17T13:26:42.787Z,4.40
2023-04-17T13:29:11.218Z,4.85
2023-04-17T13:31:39.449Z,5.43
2023-04-17T13:34:07.592Z,5.28
2023-04-17T13:36:35.651Z,4.65
2023-04-17T13:39:05.238Z,3.92
2023-04-17T13:41:34.660Z,3.90
2023-04-17T13:44:02.736Z,8.07
2023-04-17T13:46:31.857Z,5.90
2023-04-17T13:49:00.211Z,5.15
2023-04-17T13:51:28.280Z,5.65
2023-04-17T13:53:58.688Z,5.45
2023-04-17T13:56:27.965Z,5.45
2023-04-17T13:58:57.556Z,4.28
2023-04-17T14:01:25.748Z,4.25
2023-04-17T14:03:54.251Z,6.68
2023-04-17T14:06:22.392Z,4.68
2023-04-17T14:08:50.412Z,6.97
2023-04-17T14:11:19.249Z,7.80
2023-04-17T14:13:47.282Z,6.07
2023-04-17T14:16:18.770Z,6.40
2023-04-17T14:18:49.089Z,7.80
2023-04-17T14:21:17.322Z,6.32
2023-04-17T14:23:45.514Z,4.25
2023-04-17T14:26:13.988Z,5.75
2023-04-17T14:28:42.048Z,6.28
2023-04-17T14:31:10.706Z,5.18
2023-04-17T14:33:40.202Z,3.85
2023-04-17T14:36:08.851Z,5.57
2023-04-17T14:38:36.931Z,5.13
2023-04-17T14:41:04.981Z,6.55
2023-04-17T14:43:33.081Z,4.57
2023-04-17T14:46:01.686Z,5.13
2023-04-17T14:48:31.335Z,6.15
2023-04-17T14:51:02.184Z,7.20
2023-04-17T14:53:30.207Z,6.10
2023-04-17T14:55:59.138Z,4.88
2023-04-17T14:58:27.277Z,11.90
2023-04-17T15:00:55.361Z,4.53
2023-04-17T15:03:23.639Z,6.47
2023-04-17T15:05:52.323Z,8.40
2023-04-17T15:08:21.828Z,5.28
2023-04-17T15:10:51.461Z,8.38
2023-04-17T15:13:19.839Z,6.80
2023-04-17T15:15:47.914Z,7.32
2023-04-17T15:18:15.992Z,7.32
2023-04-17T15:20:44.052Z,5.45
2023-04-17T15:23:12.096Z,4.75
2023-04-17T15:25:41.647Z,4.43
2023-04-17T15:28:09.953Z,5.25
2023-04-17T15:30:37.992Z,6.38
2023-04-17T15:33:08.341Z,7.13
2023-04-17T15:35:37.818Z,6.80
2023-04-17T15:38:06.444Z,6.13
2023-04-17T15:40:34.755Z,6.38
2023-04-17T15:43:04.525Z,7.57
2023-04-17T15:45:32.576Z,6.05
2023-04-17T15:48:01.723Z,9.38
2023-04-17T15:50:29.882Z,7.47
2023-04-17T15:52:57.922Z,7.05
2023-04-17T15:55:26.075Z,5.95
2023-04-17T15:57:54.156Z,7.85
2023-04-17T16:00:23.838Z,9.32
2023-04-17T16:02:52.731Z,6.93
2023-04-17T16:05:21.302Z,6.53
2023-04-17T16:07:49.391Z,7.43
2023-04-17T16:10:19.511Z,6.78
2023-04-17T16:12:47.723Z,6.65
2023-04-17T16:15:17.818Z,8.57
2023-04-17T16:17:48.665Z,5.88
2023-04-17T16:20:17.088Z,6.83
2023-04-17T16:22:45.143Z,8.35
2023-04-17T16:25:13.235Z,8.05
2023-04-17T16:27:41.493Z,6.20
2023-04-17T16:30:10.704Z,7.03
2023-04-17T16:32:38.813Z,7.05
2023-04-17T16:35:09.048Z,9.00
2023-04-17T16:37:37.424Z,8.85
2023-04-17T16:40:06.665Z,5.78
2023-04-17T16:42:34.860Z,8.27
2023-04-17T16:45:02.975Z,5.80
2023-04-17T16:47:31.331Z,7.88
2023-04-17T16:49:59.484Z,7.75
2023-04-17T16:52:28.919Z,9.02
2023-04-17T16:54:56.927Z,9.43
2023-04-17T16:57:25.109Z,7.82
2023-04-17T16:59:53.139Z,10.30
2023-04-17T17:02:21.296Z,12.00
2023-04-17T17:04:49.615Z,9.38
2023-04-17T17:07:17.653Z,7.50
2023-04-17T17:09:47.073Z,9.15
2023-04-17T17:12:15.251Z,8.52
2023-04-17T17:14:43.283Z,9.90
2023-04-17T17:17:11.323Z,8.68
2023-04-17T17:19:39.402Z,10.02
2023-04-17T17:22:07.425Z,7.50
2023-04-17T17:24:36.199Z,6.53
2023-04-17T17:27:05.755Z,9.85
2023-04-17T17:29:34.076Z,7.07
2023-04-17T17:32:02.149Z,6.97
2023-04-17T17:34:30.602Z,9.20
2023-04-17T17:36:59.519Z,7.78
2023-04-17T17:39:27.647Z,9.43
2023-04-17T17:41:57.218Z,9.25
2023-04-17T17:44:26.668Z,10.93
2023-04-17T17:46:54.705Z,7.20
2023-04-17T17:49:22.765Z,8.55
2023-04-17T17:51:50.849Z,8.90
2023-04-17T17:54:19.155Z,6.88
2023-04-17T17:56:47.287Z,10.18
2023-04-17T17:59:15.335Z,8.38
2023-04-17T18:01:44.806Z,10.30
2023-04-17T18:04:13.373Z,6.80
2023-04-17T18:06:41.680Z,8.38
2023-04-17T18:09:09.717Z,12.00
2023-04-17T18:11:38.091Z,8.95
2023-04-17T18:14:06.632Z,8.18
2023-04-17T18:16:36.206Z,8.65
2023-04-17T18:19:05.592Z,7.68
2023-04-17T18:21:33.995Z,9.70
2023-04-17T18:24:02.754Z,7.35
2023-04-17T18:26:30.794Z,8.40
2023-04-17T18:28:58.848Z,10.10
2023-04-17T18:31:28.270Z,12.10
2023-04-17T18:33:56.426Z,6.65
2023-04-17T18:36:26.130Z,9.68
2023-04-17T18:38:54.164Z,7.90
2023-04-17T18:41:22.993Z,12.20
2023-04-17T18:43:51.146Z,7.57
2023-04-17T18:46:19.263Z,8.43
2023-04-17T18:48:47.334Z,10.80
2023-04-17T18:51:15.614Z,10.88
2023-04-17T18:53:45.053Z,13.38
2023-04-17T18:56:15.018Z,10.55
2023-04-17T18:58:43.257Z,7.85
2023-04-17T19:01:11.563Z,10.38
2023-04-17T19:03:40.785Z,9.02
2023-04-17T19:06:08.836Z,9.30
2023-04-17T19:08:39.398Z,10.13
2023-04-17T19:11:08.848Z,7.70
2023-04-17T19:13:36.893Z,11.55
2023-04-17T19:16:05.040Z,9.73
2023-04-17T19:18:33.103Z,9.63
2023-04-17T19:21:02.037Z,8.60
2023-04-17T19:23:30.187Z,11.43
2023-04-17T19:25:58.210Z,10.82
2023-04-17T19:28:28.461Z,7.78
2023-04-17T19:30:57.806Z,8.43
2023-04-17T19:33:25.901Z,7.25
2023-04-17T19:35:53.956Z,8.82
2023-04-17T19:38:22.437Z,9.70
2023-04-17T19:41:12.196Z,7.05
2023-04-17T19:43:42.392Z,7.00
2023-04-17T19:46:10.635Z,7.05
2023-04-17T19:48:38.754Z,7.10
2023-04-17T19:51:07.411Z,9.98
2023-04-17T19:53:36.156Z,8.15
2023-04-17T19:56:06.958Z,10.45
2023-04-17T19:58:36.488Z,6.38
2023-04-17T20:01:06.125Z,9.02
2023-04-17T20:03:35.620Z,6.63
2023-04-17T20:06:04.409Z,10.75
2023-04-17T20:08:32.502Z,10.45
2023-04-17T20:11:00.768Z,8.70
2023-04-17T20:13:28.989Z,7.55
2023-04-17T20:15:57.048Z,9.98
2023-04-17T20:18:27.242Z,8.07
2023-04-17T20:20:55.287Z,8.02
2023-04-17T20:23:23.518Z,9.02
2023-04-17T20:25:51.598Z,7.80
2023-04-17T20:28:19.679Z,8.13
2023-04-17T20:30:47.844Z,9.95
2023-04-17T20:33:16.018Z,10.63
2023-04-17T20:35:45.527Z,8.32
2023-04-17T20:38:13.635Z,10.48
2023-04-17T20:40:41.761Z,8.73
2023-04-17T20:43:09.864Z,7.32
2023-04-17T20:45:38.157Z,9.13
2023-04-17T20:48:06.237Z,9.50
2023-04-17T20:50:34.330Z,10.32
2023-04-17T20:53:03.798Z,7.28
2023-04-17T20:55:31.852Z,8.77
2023-04-17T20:57:59.925Z,6.15
2023-04-17T21:00:27.987Z,9.13
2023-04-17T21:03:00.209Z,8.43
2023-04-17T21:05:28.491Z,10.38
2023-04-17T21:07:57.635Z,9.65
2023-04-17T21:10:27.231Z,8.55
2023-04-17T21:12:55.281Z,8.93
2023-04-17T21:15:23.366Z,7.28
2023-04-17T21:17:51.453Z,6.25
2023-04-17T21:20:19.622Z,10.00
2023-04-17T21:22:47.655Z,7.43
2023-04-17T21:25:15.795Z,11.55
2023-04-17T21:27:45.268Z,9.75
2023-04-17T21:30:13.617Z,12.57
2023-04-17T21:32:42.223Z,16.83
2023-04-17T21:35:11.398Z,12.02
2023-04-17T21:37:39.484Z,11.20
2023-04-17T21:40:08.773Z,22.00
2023-04-17T21:42:36.812Z,11.18
2023-04-17T21:45:07.302Z,9.50
2023-04-17T21:47:35.588Z,8.05
2023-04-17T21:50:03.760Z,13.40
2023-04-17T21:52:32.129Z,11.75
2023-04-17T21:55:05.053Z,11.55
2023-04-17T21:57:33.490Z,10.35
2023-04-17T22:00:01.675Z,11.48
2023-04-17T22:02:31.364Z,9.85
2023-04-17T22:04:59.725Z,14.15
2023-04-17T22:07:27.806Z,8.82
2023-04-17T22:09:55.822Z,9.95
2023-04-17T22:12:23.870Z,9.75
2023-04-17T22:14:51.918Z,12.80
2023-04-17T22:17:20.141Z,11.82
2023-04-17T22:19:49.602Z,9.80
2023-04-17T22:22:17.804Z,9.88
2023-04-17T22:24:45.848Z,11.27
2023-04-17T22:27:14.046Z,10.00
2023-04-17T22:29:42.065Z,8.60
2023-04-17T22:32:10.133Z,10.38
2023-04-17T22:34:39.522Z,8.60
2023-04-17T22:37:10.109Z,8.55
2023-04-17T22:39:38.156Z,10.73
2023-04-17T22:42:06.241Z,8.70
2023-04-17T22:44:34.310Z,10.13
2023-04-17T22:47:02.367Z,7.70
2023-04-17T22:49:30.801Z,8.77
2023-04-17T22:51:58.911Z,10.52
2023-04-17T22:54:28.478Z,12.45
2023-04-17T22:56:56.618Z,9.63
2023-04-17T22:59:24.763Z,8.48
2023-04-17T23:01:53.420Z,7.30
2023-04-17T23:04:23.345Z,11.60
2023-04-17T23:06:51.419Z,9.10
2023-04-17T23:09:19.520Z,15.65
2023-04-17T23:11:48.975Z,14.27
2023-04-17T23:14:17.323Z,10.80
2023-04-17T23:16:45.348Z,10.07
2023-04-17T23:19:13.426Z,13.00
2023-04-17T23:21:41.509Z,10.68
2023-04-17T23:24:09.569Z,10.55
2023-04-17T23:26:38.011Z,11.90
2023-04-17T23:29:07.423Z,12.52
2023-04-17T23:31:37.411Z,10.23
2023-04-17T23:34:05.455Z,9.43
2023-04-17T23:36:33.560Z,13.82
2023-04-17T23:39:01.588Z,12.07
2023-04-17T23:41:29.652Z,11.52
2023-04-17T23:43:57.698Z,10.02
2023-04-17T23:46:27.203Z,10.73
2023-04-17T23:48:55.312Z,17.27
2023-04-17T23:51:23.345Z,17.70
2023-04-17T23:53:51.438Z,16.48
2023-04-17T23:56:22.069Z,10.90
2023-04-17T23:58:50.113Z,15.27
